sensor_id;sensor_type;location;lat;lon;timestamp;pressure;altitude;pressure_sealevel;temperature;humidity
61436;BME280;47304;47.456;19.160;2022-11-14T00:01:15;101450.50;;;6.25;85.83
61436;BME280;47304;47.456;19.160;2022-11-14T00:03:48;101446.54;;;6.26;85.71
61436;BME280;47304;47.456;19.160;2022-11-14T00:06:16;101443.30;;;6.28;85.66
61436;BME280;47304;47.456;19.160;2022-11-14T00:08:43;101445.37;;;6.28;85.57
61436;BME280;47304;47.456;19.160;2022-11-14T00:11:11;101449.05;;;6.29;85.81
61436;BME280;47304;47.456;19.160;2022-11-14T00:13:39;101450.49;;;6.30;85.70
61436;BME280;47304;47.456;19.160;2022-11-14T00:16:06;101445.92;;;6.29;85.67
61436;BME280;47304;47.456;19.160;2022-11-14T00:18:34;101445.67;;;6.31;85.96
61436;BME280;47304;47.456;19.160;2022-11-14T00:21:01;101443.48;;;6.34;85.84
61436;BME280;47304;47.456;19.160;2022-11-14T00:23:29;101436.02;;;6.34;85.77
61436;BME280;47304;47.456;19.160;2022-11-14T00:25:57;101432.02;;;6.34;85.73
61436;BME280;47304;47.456;19.160;2022-11-14T00:28:24;101434.48;;;6.35;85.78
61436;BME280;47304;47.456;19.160;2022-11-14T00:30:52;101444.81;;;6.36;85.90
61436;BME280;47304;47.456;19.160;2022-11-14T00:33:19;101437.53;;;6.38;85.76
61436;BME280;47304;47.456;19.160;2022-11-14T00:35:54;101432.37;;;6.39;85.81
61436;BME280;47304;47.456;19.160;2022-11-14T00:38:23;101435.42;;;6.43;85.78
61436;BME280;47304;47.456;19.160;2022-11-14T00:40:50;101432.89;;;6.45;85.77
61436;BME280;47304;47.456;19.160;2022-11-14T00:43:18;101433.13;;;6.46;85.58
61436;BME280;47304;47.456;19.160;2022-11-14T00:45:46;101434.21;;;6.48;85.62
61436;BME280;47304;47.456;19.160;2022-11-14T00:48:15;101435.70;;;6.51;85.63
61436;BME280;47304;47.456;19.160;2022-11-14T00:50:43;101438.53;;;6.52;85.52
61436;BME280;47304;47.456;19.160;2022-11-14T00:53:11;101438.59;;;6.54;85.51
61436;BME280;47304;47.456;19.160;2022-11-14T00:55:39;101441.25;;;6.55;85.39
61436;BME280;47304;47.456;19.160;2022-11-14T00:58:07;101441.10;;;6.56;85.46
61436;BME280;47304;47.456;19.160;2022-11-14T01:00:36;101439.76;;;6.58;85.36
61436;BME280;47304;47.456;19.160;2022-11-14T01:03:03;101437.30;;;6.57;85.26
61436;BME280;47304;47.456;19.160;2022-11-14T01:05:31;101432.73;;;6.56;85.24
61436;BME280;47304;47.456;19.160;2022-11-14T01:07:59;101433.38;;;6.54;85.24
61436;BME280;47304;47.456;19.160;2022-11-14T01:10:26;101435.77;;;6.53;85.10
61436;BME280;47304;47.456;19.160;2022-11-14T01:12:54;101435.20;;;6.51;85.19
61436;BME280;47304;47.456;19.160;2022-11-14T01:15:22;101433.30;;;6.52;85.31
61436;BME280;47304;47.456;19.160;2022-11-14T01:17:49;101432.98;;;6.53;85.32
61436;BME280;47304;47.456;19.160;2022-11-14T01:20:17;101430.70;;;6.52;85.19
61436;BME280;47304;47.456;19.160;2022-11-14T01:22:44;101432.29;;;6.53;85.25
61436;BME280;47304;47.456;19.160;2022-11-14T01:25:12;101431.25;;;6.53;85.19
61436;BME280;47304;47.456;19.160;2022-11-14T01:27:40;101428.01;;;6.55;85.36
61436;BME280;47304;47.456;19.160;2022-11-14T01:30:07;101417.58;;;6.55;85.29
61436;BME280;47304;47.456;19.160;2022-11-14T01:32:35;101414.65;;;6.56;85.31
61436;BME280;47304;47.456;19.160;2022-11-14T01:35:03;101413.48;;;6.58;85.29
61436;BME280;47304;47.456;19.160;2022-11-14T01:37:31;101413.16;;;6.59;85.18
61436;BME280;47304;47.456;19.160;2022-11-14T01:39:58;101413.68;;;6.59;85.10
61436;BME280;47304;47.456;19.160;2022-11-14T01:42:26;101412.91;;;6.57;85.02
61436;BME280;47304;47.456;19.160;2022-11-14T01:44:54;101411.65;;;6.55;84.86
61436;BME280;47304;47.456;19.160;2022-11-14T01:47:28;101418.73;;;6.54;84.82
61436;BME280;47304;47.456;19.160;2022-11-14T01:49:58;101422.15;;;6.51;84.93
61436;BME280;47304;47.456;19.160;2022-11-14T01:52:36;101418.05;;;6.49;85.03
61436;BME280;47304;47.456;19.160;2022-11-14T01:55:07;101409.63;;;6.47;85.09
61436;BME280;47304;47.456;19.160;2022-11-14T01:57:38;101402.19;;;6.48;85.23
61436;BME280;47304;47.456;19.160;2022-11-14T02:00:10;101399.96;;;6.49;85.25
61436;BME280;47304;47.456;19.160;2022-11-14T02:02:40;101401.04;;;6.50;85.22
61436;BME280;47304;47.456;19.160;2022-11-14T02:05:10;101396.87;;;6.50;85.14
61436;BME280;47304;47.456;19.160;2022-11-14T02:07:40;101391.39;;;6.48;85.05
61436;BME280;47304;47.456;19.160;2022-11-14T02:10:14;101394.83;;;6.46;85.05
61436;BME280;47304;47.456;19.160;2022-11-14T02:12:43;101393.61;;;6.47;85.17
61436;BME280;47304;47.456;19.160;2022-11-14T02:15:11;101393.11;;;6.48;85.26
61436;BME280;47304;47.456;19.160;2022-11-14T02:17:40;101394.33;;;6.47;85.17
61436;BME280;47304;47.456;19.160;2022-11-14T02:22:40;101386.20;;;6.44;85.04
61436;BME280;47304;47.456;19.160;2022-11-14T02:25:09;101393.61;;;6.41;85.08
61436;BME280;47304;47.456;19.160;2022-11-14T02:27:40;101390.94;;;6.39;85.16
61436;BME280;47304;47.456;19.160;2022-11-14T02:30:11;101388.11;;;6.38;85.10
61436;BME280;47304;47.456;19.160;2022-11-14T02:32:39;101389.98;;;6.36;85.11
61436;BME280;47304;47.456;19.160;2022-11-14T02:35:27;101387.16;;;6.35;85.17
61436;BME280;47304;47.456;19.160;2022-11-14T02:37:54;101385.14;;;6.38;85.29
61436;BME280;47304;47.456;19.160;2022-11-14T02:40:22;101388.66;;;6.39;85.33
61436;BME280;47304;47.456;19.160;2022-11-14T02:42:49;101392.20;;;6.41;85.29
61436;BME280;47304;47.456;19.160;2022-11-14T02:45:17;101390.17;;;6.43;85.34
61436;BME280;47304;47.456;19.160;2022-11-14T02:47:45;101394.53;;;6.43;85.18
61436;BME280;47304;47.456;19.160;2022-11-14T02:50:13;101387.44;;;6.39;84.88
61436;BME280;47304;47.456;19.160;2022-11-14T02:52:41;101384.88;;;6.35;85.10
61436;BME280;47304;47.456;19.160;2022-11-14T02:55:09;101381.66;;;6.33;85.13
61436;BME280;47304;47.456;19.160;2022-11-14T02:57:36;101377.80;;;6.31;85.13
61436;BME280;47304;47.456;19.160;2022-11-14T03:00:04;101377.63;;;6.31;85.11
61436;BME280;47304;47.456;19.160;2022-11-14T03:02:41;101378.14;;;6.31;85.01
61436;BME280;47304;47.456;19.160;2022-11-14T03:05:08;101376.71;;;6.30;84.89
61436;BME280;47304;47.456;19.160;2022-11-14T03:07:36;101376.77;;;6.27;84.87
61436;BME280;47304;47.456;19.160;2022-11-14T03:10:04;101379.12;;;6.24;84.80
61436;BME280;47304;47.456;19.160;2022-11-14T03:12:32;101380.73;;;6.20;84.74
61436;BME280;47304;47.456;19.160;2022-11-14T03:14:59;101383.43;;;6.12;84.55
61436;BME280;47304;47.456;19.160;2022-11-14T03:17:30;101383.43;;;6.02;84.47
61436;BME280;47304;47.456;19.160;2022-11-14T03:19:59;101382.56;;;5.93;84.52
61436;BME280;47304;47.456;19.160;2022-11-14T03:22:27;101378.24;;;5.84;84.66
61436;BME280;47304;47.456;19.160;2022-11-14T03:24:55;101382.27;;;5.79;85.07
61436;BME280;47304;47.456;19.160;2022-11-14T03:27:22;101378.02;;;5.77;85.17
61436;BME280;47304;47.456;19.160;2022-11-14T03:29:50;101378.34;;;5.71;84.82
61436;BME280;47304;47.456;19.160;2022-11-14T03:32:17;101378.37;;;5.67;85.03
61436;BME280;47304;47.456;19.160;2022-11-14T03:34:45;101375.37;;;5.66;85.20
61436;BME280;47304;47.456;19.160;2022-11-14T03:37:13;101375.85;;;5.66;85.20
61436;BME280;47304;47.456;19.160;2022-11-14T03:39:40;101381.26;;;5.66;85.04
61436;BME280;47304;47.456;19.160;2022-11-14T03:42:08;101378.00;;;5.62;85.06
61436;BME280;47304;47.456;19.160;2022-11-14T03:44:35;101374.80;;;5.60;85.09
61436;BME280;47304;47.456;19.160;2022-11-14T03:47:03;101373.67;;;5.53;85.06
61436;BME280;47304;47.456;19.160;2022-11-14T03:49:31;101367.63;;;5.49;85.24
61436;BME280;47304;47.456;19.160;2022-11-14T03:51:58;101368.65;;;5.48;85.51
61436;BME280;47304;47.456;19.160;2022-11-14T03:54:26;101369.85;;;5.48;85.38
61436;BME280;47304;47.456;19.160;2022-11-14T03:56:54;101373.79;;;5.41;85.08
61436;BME280;47304;47.456;19.160;2022-11-14T03:59:21;101375.41;;;5.34;85.08
61436;BME280;47304;47.456;19.160;2022-11-14T04:01:49;101370.07;;;5.30;85.33
61436;BME280;47304;47.456;19.160;2022-11-14T04:04:16;101362.63;;;5.31;85.63
61436;BME280;47304;47.456;19.160;2022-11-14T04:06:44;101358.59;;;5.29;85.49
61436;BME280;47304;47.456;19.160;2022-11-14T04:09:12;101361.75;;;5.30;85.65
61436;BME280;47304;47.456;19.160;2022-11-14T04:11:39;101366.15;;;5.32;85.59
61436;BME280;47304;47.456;19.160;2022-11-14T04:14:08;101367.77;;;5.34;85.57
61436;BME280;47304;47.456;19.160;2022-11-14T04:16:36;101362.95;;;5.35;85.37
61436;BME280;47304;47.456;19.160;2022-11-14T04:19:03;101363.09;;;5.34;85.27
61436;BME280;47304;47.456;19.160;2022-11-14T04:21:31;101358.73;;;5.34;85.23
61436;BME280;47304;47.456;19.160;2022-11-14T04:23:59;101354.63;;;5.35;85.42
61436;BME280;47304;47.456;19.160;2022-11-14T04:26:26;101349.31;;;5.37;85.31
61436;BME280;47304;47.456;19.160;2022-11-14T04:28:54;101346.08;;;5.40;85.32
61436;BME280;47304;47.456;19.160;2022-11-14T04:31:21;101344.40;;;5.41;85.12
61436;BME280;47304;47.456;19.160;2022-11-14T04:33:49;101343.36;;;5.41;85.02
61436;BME280;47304;47.456;19.160;2022-11-14T04:36:17;101349.94;;;5.40;84.87
61436;BME280;47304;47.456;19.160;2022-11-14T04:38:44;101347.33;;;5.40;84.95
61436;BME280;47304;47.456;19.160;2022-11-14T04:41:12;101349.09;;;5.36;84.77
61436;BME280;47304;47.456;19.160;2022-11-14T04:43:40;101342.98;;;5.31;84.78
61436;BME280;47304;47.456;19.160;2022-11-14T04:46:07;101340.29;;;5.28;85.07
61436;BME280;47304;47.456;19.160;2022-11-14T04:48:35;101336.65;;;5.28;85.19
61436;BME280;47304;47.456;19.160;2022-11-14T04:51:02;101338.25;;;5.29;85.22
61436;BME280;47304;47.456;19.160;2022-11-14T04:53:30;101335.36;;;5.30;85.25
61436;BME280;47304;47.456;19.160;2022-11-14T04:55:58;101332.02;;;5.30;85.14
61436;BME280;47304;47.456;19.160;2022-11-14T04:58:26;101336.27;;;5.32;85.24
61436;BME280;47304;47.456;19.160;2022-11-14T05:00:53;101330.94;;;5.34;85.30
61436;BME280;47304;47.456;19.160;2022-11-14T05:03:21;101331.67;;;5.35;85.24
61436;BME280;47304;47.456;19.160;2022-11-14T05:05:49;101330.86;;;5.36;85.17
61436;BME280;47304;47.456;19.160;2022-11-14T05:08:17;101328.57;;;5.36;85.11
61436;BME280;47304;47.456;19.160;2022-11-14T05:10:45;101323.77;;;5.37;85.13
61436;BME280;47304;47.456;19.160;2022-11-14T05:13:12;101319.77;;;5.37;85.06
61436;BME280;47304;47.456;19.160;2022-11-14T05:15:40;101316.42;;;5.36;84.98
61436;BME280;47304;47.456;19.160;2022-11-14T05:18:08;101316.94;;;5.36;85.08
61436;BME280;47304;47.456;19.160;2022-11-14T05:20:35;101314.20;;;5.37;85.07
61436;BME280;47304;47.456;19.160;2022-11-14T05:23:03;101321.00;;;5.38;85.05
61436;BME280;47304;47.456;19.160;2022-11-14T05:25:31;101325.59;;;5.40;85.09
61436;BME280;47304;47.456;19.160;2022-11-14T05:27:58;101324.96;;;5.42;84.94
61436;BME280;47304;47.456;19.160;2022-11-14T05:30:26;101322.52;;;5.41;84.84
61436;BME280;47304;47.456;19.160;2022-11-14T05:32:54;101322.51;;;5.41;84.83
61436;BME280;47304;47.456;19.160;2022-11-14T05:35:21;101325.31;;;5.42;84.90
61436;BME280;47304;47.456;19.160;2022-11-14T05:37:49;101327.17;;;5.40;84.80
61436;BME280;47304;47.456;19.160;2022-11-14T05:40:16;101322.61;;;5.39;84.83
61436;BME280;47304;47.456;19.160;2022-11-14T05:42:44;101320.80;;;5.37;84.92
61436;BME280;47304;47.456;19.160;2022-11-14T05:45:12;101322.53;;;5.37;84.99
61436;BME280;47304;47.456;19.160;2022-11-14T05:47:39;101322.92;;;5.38;84.97
61436;BME280;47304;47.456;19.160;2022-11-14T05:50:07;101323.47;;;5.39;84.95
61436;BME280;47304;47.456;19.160;2022-11-14T05:52:35;101329.20;;;5.39;84.84
61436;BME280;47304;47.456;19.160;2022-11-14T05:55:03;101329.44;;;5.41;85.01
61436;BME280;47304;47.456;19.160;2022-11-14T05:57:30;101329.20;;;5.43;85.00
61436;BME280;47304;47.456;19.160;2022-11-14T05:59:58;101326.41;;;5.43;84.81
61436;BME280;47304;47.456;19.160;2022-11-14T06:02:26;101328.45;;;5.42;84.57
61436;BME280;47304;47.456;19.160;2022-11-14T06:04:53;101327.86;;;5.40;84.56
61436;BME280;47304;47.456;19.160;2022-11-14T06:07:21;101326.77;;;5.38;84.54
61436;BME280;47304;47.456;19.160;2022-11-14T06:09:48;101329.56;;;5.39;84.68
61436;BME280;47304;47.456;19.160;2022-11-14T06:12:16;101328.52;;;5.39;84.51
61436;BME280;47304;47.456;19.160;2022-11-14T06:14:44;101326.90;;;5.37;84.26
61436;BME280;47304;47.456;19.160;2022-11-14T06:17:11;101329.41;;;5.35;84.11
61436;BME280;47304;47.456;19.160;2022-11-14T06:19:39;101337.33;;;5.33;83.93
61436;BME280;47304;47.456;19.160;2022-11-14T06:22:06;101340.03;;;5.30;83.88
61436;BME280;47304;47.456;19.160;2022-11-14T06:24:34;101344.46;;;5.28;83.74
61436;BME280;47304;47.456;19.160;2022-11-14T06:27:02;101343.05;;;5.27;83.90
61436;BME280;47304;47.456;19.160;2022-11-14T06:29:29;101347.17;;;5.26;83.83
61436;BME280;47304;47.456;19.160;2022-11-14T06:32:02;101348.32;;;5.25;83.70
61436;BME280;47304;47.456;19.160;2022-11-14T06:34:29;101348.80;;;5.23;83.69
61436;BME280;47304;47.456;19.160;2022-11-14T06:36:57;101352.95;;;5.23;83.65
61436;BME280;47304;47.456;19.160;2022-11-14T06:39:26;101353.77;;;5.22;83.66
61436;BME280;47304;47.456;19.160;2022-11-14T06:41:53;101360.02;;;5.16;83.22
61436;BME280;47304;47.456;19.160;2022-11-14T06:44:21;101363.73;;;5.04;82.92
61436;BME280;47304;47.456;19.160;2022-11-14T06:46:56;101361.04;;;4.89;82.93
61436;BME280;47304;47.456;19.160;2022-11-14T06:49:24;101357.38;;;4.79;83.21
61436;BME280;47304;47.456;19.160;2022-11-14T06:51:53;101357.48;;;4.68;82.93
61436;BME280;47304;47.456;19.160;2022-11-14T06:54:20;101356.50;;;4.57;82.93
61436;BME280;47304;47.456;19.160;2022-11-14T06:56:48;101357.31;;;4.46;83.25
61436;BME280;47304;47.456;19.160;2022-11-14T06:59:16;101359.54;;;4.46;83.87
61436;BME280;47304;47.456;19.160;2022-11-14T07:01:43;101354.02;;;4.47;83.86
61436;BME280;47304;47.456;19.160;2022-11-14T07:04:11;101354.40;;;4.43;83.58
61436;BME280;47304;47.456;19.160;2022-11-14T07:06:39;101356.13;;;4.43;83.73
61436;BME280;47304;47.456;19.160;2022-11-14T07:09:09;101355.53;;;4.45;83.82
61436;BME280;47304;47.456;19.160;2022-11-14T07:11:37;101351.23;;;4.46;83.73
61436;BME280;47304;47.456;19.160;2022-11-14T07:14:05;101359.70;;;4.50;83.86
61436;BME280;47304;47.456;19.160;2022-11-14T07:16:34;101365.86;;;4.52;83.77
61436;BME280;47304;47.456;19.160;2022-11-14T07:19:05;101364.47;;;4.56;83.95
61436;BME280;47304;47.456;19.160;2022-11-14T07:21:33;101360.89;;;4.62;84.06
61436;BME280;47304;47.456;19.160;2022-11-14T07:24:01;101360.09;;;4.73;84.39
61436;BME280;47304;47.456;19.160;2022-11-14T07:26:29;101367.87;;;4.85;84.33
61436;BME280;47304;47.456;19.160;2022-11-14T07:28:57;101363.76;;;4.96;84.17
61436;BME280;47304;47.456;19.160;2022-11-14T07:31:29;101360.51;;;5.07;83.93
61436;BME280;47304;47.456;19.160;2022-11-14T07:33:57;101357.58;;;5.16;83.93
61436;BME280;47304;47.456;19.160;2022-11-14T07:36:24;101356.21;;;5.26;83.67
61436;BME280;47304;47.456;19.160;2022-11-14T07:38:53;101360.70;;;5.35;83.53
61436;BME280;47304;47.456;19.160;2022-11-14T07:41:20;101359.98;;;5.44;83.51
61436;BME280;47304;47.456;19.160;2022-11-14T07:43:48;101358.20;;;5.53;83.42
61436;BME280;47304;47.456;19.160;2022-11-14T07:46:17;101362.06;;;5.58;83.23
61436;BME280;47304;47.456;19.160;2022-11-14T07:48:44;101359.27;;;5.58;82.89
61436;BME280;47304;47.456;19.160;2022-11-14T07:51:17;101362.09;;;5.59;83.07
61436;BME280;47304;47.456;19.160;2022-11-14T07:53:45;101361.48;;;5.62;82.84
61436;BME280;47304;47.456;19.160;2022-11-14T07:56:13;101358.98;;;5.60;82.64
61436;BME280;47304;47.456;19.160;2022-11-14T07:58:41;101356.48;;;5.59;82.89
61436;BME280;47304;47.456;19.160;2022-11-14T08:01:11;101351.52;;;5.60;83.14
61436;BME280;47304;47.456;19.160;2022-11-14T08:03:39;101353.05;;;5.64;83.22
61436;BME280;47304;47.456;19.160;2022-11-14T08:06:14;101350.05;;;5.63;83.01
61436;BME280;47304;47.456;19.160;2022-11-14T08:08:42;101344.53;;;5.64;82.96
61436;BME280;47304;47.456;19.160;2022-11-14T08:11:10;101342.25;;;5.63;82.95
61436;BME280;47304;47.456;19.160;2022-11-14T08:13:38;101341.28;;;5.66;83.22
61436;BME280;47304;47.456;19.160;2022-11-14T08:16:07;101337.63;;;5.70;83.28
61436;BME280;47304;47.456;19.160;2022-11-14T08:18:40;101337.06;;;5.75;83.41
61436;BME280;47304;47.456;19.160;2022-11-14T08:21:08;101327.69;;;5.80;83.50
61436;BME280;47304;47.456;19.160;2022-11-14T08:23:35;101330.64;;;5.85;83.53
61436;BME280;47304;47.456;19.160;2022-11-14T08:26:03;101327.38;;;5.87;83.32
61436;BME280;47304;47.456;19.160;2022-11-14T08:28:31;101328.16;;;5.89;83.41
61436;BME280;47304;47.456;19.160;2022-11-14T08:31:03;101327.52;;;5.96;83.58
61436;BME280;47304;47.456;19.160;2022-11-14T08:33:31;101322.44;;;6.04;83.58
61436;BME280;47304;47.456;19.160;2022-11-14T08:36:03;101323.38;;;6.11;83.55
61436;BME280;47304;47.456;19.160;2022-11-14T08:38:33;101323.05;;;6.18;83.39
61436;BME280;47304;47.456;19.160;2022-11-14T08:41:01;101325.92;;;6.26;83.44
61436;BME280;47304;47.456;19.160;2022-11-14T08:43:29;101324.20;;;6.32;83.36
61436;BME280;47304;47.456;19.160;2022-11-14T08:46:02;101325.88;;;6.40;83.49
61436;BME280;47304;47.456;19.160;2022-11-14T08:48:31;101322.70;;;6.50;83.48
61436;BME280;47304;47.456;19.160;2022-11-14T08:51:04;101321.27;;;6.60;83.29
61436;BME280;47304;47.456;19.160;2022-11-14T08:53:32;101316.25;;;6.73;83.38
61436;BME280;47304;47.456;19.160;2022-11-14T08:56:00;101316.09;;;6.85;83.11
61436;BME280;47304;47.456;19.160;2022-11-14T08:58:31;101314.47;;;6.95;82.90
61436;BME280;47304;47.456;19.160;2022-11-14T09:01:03;101313.84;;;7.03;82.65
61436;BME280;47304;47.456;19.160;2022-11-14T09:03:32;101313.82;;;7.09;82.50
61436;BME280;47304;47.456;19.160;2022-11-14T09:06:01;101314.83;;;7.13;82.38
61436;BME280;47304;47.456;19.160;2022-11-14T09:08:29;101312.57;;;7.20;81.93
61436;BME280;47304;47.456;19.160;2022-11-14T09:11:02;101313.17;;;7.23;81.52
61436;BME280;47304;47.456;19.160;2022-11-14T09:13:33;101318.73;;;7.28;81.43
61436;BME280;47304;47.456;19.160;2022-11-14T09:16:01;101311.66;;;7.37;81.68
61436;BME280;47304;47.456;19.160;2022-11-14T09:18:29;101313.70;;;7.54;81.48
61436;BME280;47304;47.456;19.160;2022-11-14T09:20:59;101307.73;;;7.73;81.07
61436;BME280;47304;47.456;19.160;2022-11-14T09:23:27;101305.25;;;7.99;80.68
61436;BME280;47304;47.456;19.160;2022-11-14T09:25:57;101304.70;;;8.19;79.54
61436;BME280;47304;47.456;19.160;2022-11-14T09:28:27;101302.77;;;8.26;79.26
61436;BME280;47304;47.456;19.160;2022-11-14T09:31:02;101301.96;;;8.36;79.24
61436;BME280;47304;47.456;19.160;2022-11-14T09:33:30;101298.55;;;8.69;79.09
61436;BME280;47304;47.456;19.160;2022-11-14T09:36:00;101294.18;;;9.37;78.46
61436;BME280;47304;47.456;19.160;2022-11-14T09:38:28;101288.16;;;10.91;76.83
61436;BME280;47304;47.456;19.160;2022-11-14T09:46:29;101267.15;;;18.24;58.28
61436;BME280;47304;47.456;19.160;2022-11-14T09:48:58;101258.36;;;19.75;54.75
61436;BME280;47304;47.456;19.160;2022-11-14T09:51:32;101258.23;;;20.44;52.44
61436;BME280;47304;47.456;19.160;2022-11-14T09:54:15;101259.73;;;19.99;50.92
61436;BME280;47304;47.456;19.160;2022-11-14T09:56:46;101259.83;;;19.19;50.90
61436;BME280;47304;47.456;19.160;2022-11-14T09:59:14;101257.80;;;18.71;51.13
61436;BME280;47304;47.456;19.160;2022-11-14T10:15:25;101226.58;;;18.95;48.84
61436;BME280;47304;47.456;19.160;2022-11-14T10:32:04;101208.86;;;16.60;54.52
61436;BME280;47304;47.456;19.160;2022-11-14T10:35:02;101204.49;;;16.54;54.47
61436;BME280;47304;47.456;19.160;2022-11-14T10:45:52;101181.14;;;17.10;54.17
61436;BME280;47304;47.456;19.160;2022-11-14T10:48:37;101180.75;;;17.13;54.32
61436;BME280;47304;47.456;19.160;2022-11-14T10:51:23;101180.80;;;17.34;53.69
61436;BME280;47304;47.456;19.160;2022-11-14T10:54:36;101173.25;;;18.66;52.07
61436;BME280;47304;47.456;19.160;2022-11-14T10:57:02;101162.95;;;20.76;48.06
61436;BME280;47304;47.456;19.160;2022-11-14T10:59:29;101160.41;;;21.84;46.80
61436;BME280;47304;47.456;19.160;2022-11-14T11:01:57;101155.88;;;21.81;44.75
61436;BME280;47304;47.456;19.160;2022-11-14T11:06:56;101152.41;;;20.66;45.60
61436;BME280;47304;47.456;19.160;2022-11-14T11:09:26;101154.41;;;20.15;46.44
61436;BME280;47304;47.456;19.160;2022-11-14T11:11:57;101153.11;;;19.76;47.07
61436;BME280;47304;47.456;19.160;2022-11-14T11:14:25;101150.92;;;19.36;47.67
61436;BME280;47304;47.456;19.160;2022-11-14T11:19:39;101149.19;;;20.48;46.95
61436;BME280;47304;47.456;19.160;2022-11-14T11:24:54;101135.24;;;24.02;41.58
61436;BME280;47304;47.456;19.160;2022-11-14T11:27:24;101132.95;;;25.35;39.29
61436;BME280;47304;47.456;19.160;2022-11-14T11:30:18;101123.88;;;26.61;37.31
61436;BME280;47304;47.456;19.160;2022-11-14T11:32:45;101122.95;;;28.00;35.71
61436;BME280;47304;47.456;19.160;2022-11-14T11:35:15;101117.89;;;28.90;33.90
61436;BME280;47304;47.456;19.160;2022-11-14T11:38:10;101120.69;;;29.35;32.10
61436;BME280;47304;47.456;19.160;2022-11-14T11:40:44;101121.17;;;29.14;32.14
61436;BME280;47304;47.456;19.160;2022-11-14T11:46:12;101118.54;;;28.08;32.08
61436;BME280;47304;47.456;19.160;2022-11-14T11:48:45;101118.50;;;27.05;32.53
61436;BME280;47304;47.456;19.160;2022-11-14T11:51:17;101122.50;;;25.72;33.65
61436;BME280;47304;47.456;19.160;2022-11-14T11:53:54;101119.84;;;24.54;35.10
61436;BME280;47304;47.456;19.160;2022-11-14T11:56:29;101121.10;;;23.52;36.53
61436;BME280;47304;47.456;19.160;2022-11-14T11:59:19;101121.75;;;22.65;37.75
61436;BME280;47304;47.456;19.160;2022-11-14T12:01:50;101121.56;;;21.68;38.88
61436;BME280;47304;47.456;19.160;2022-11-14T12:04:18;101122.20;;;20.99;40.19
61436;BME280;47304;47.456;19.160;2022-11-14T12:06:53;101111.58;;;20.33;41.20
61436;BME280;47304;47.456;19.160;2022-11-14T12:09:36;101114.28;;;19.65;42.61
61436;BME280;47304;47.456;19.160;2022-11-14T12:18:16;101103.76;;;17.64;46.87
61436;BME280;47304;47.456;19.160;2022-11-14T12:31:56;101089.71;;;15.98;51.73
61436;BME280;47304;47.456;19.160;2022-11-14T12:34:32;101083.36;;;15.78;52.50
61436;BME280;47304;47.456;19.160;2022-11-14T12:37:07;101078.77;;;15.59;52.67
61436;BME280;47304;47.456;19.160;2022-11-14T12:39:36;101078.64;;;15.36;53.03
61436;BME280;47304;47.456;19.160;2022-11-14T12:42:06;101073.35;;;15.18;53.65
61436;BME280;47304;47.456;19.160;2022-11-14T12:44:38;101067.27;;;15.02;54.19
61436;BME280;47304;47.456;19.160;2022-11-14T12:52:42;101063.52;;;14.52;54.90
61436;BME280;47304;47.456;19.160;2022-11-14T13:00:23;101050.55;;;14.02;56.48
61436;BME280;47304;47.456;19.160;2022-11-14T13:11:44;101055.45;;;13.49;58.17
61436;BME280;47304;47.456;19.160;2022-11-14T13:14:13;101055.25;;;13.37;58.56
61436;BME280;47304;47.456;19.160;2022-11-14T13:16:40;101055.77;;;13.27;58.58
61436;BME280;47304;47.456;19.160;2022-11-14T13:19:19;101053.68;;;13.17;58.88
61436;BME280;47304;47.456;19.160;2022-11-14T13:27:34;101048.73;;;12.72;59.93
61436;BME280;47304;47.456;19.160;2022-11-14T13:42:00;101038.63;;;12.30;61.51
61436;BME280;47304;47.456;19.160;2022-11-14T13:50:03;101031.29;;;11.99;62.95
61436;BME280;47304;47.456;19.160;2022-11-14T13:52:33;101025.80;;;11.90;63.49
61436;BME280;47304;47.456;19.160;2022-11-14T13:55:01;101017.85;;;11.84;63.56
61436;BME280;47304;47.456;19.160;2022-11-14T14:00:11;101019.18;;;11.69;63.98
61436;BME280;47304;47.456;19.160;2022-11-14T14:05:45;101020.17;;;11.57;64.45
61436;BME280;47304;47.456;19.160;2022-11-14T14:08:25;101013.29;;;11.51;64.73
61436;BME280;47304;47.456;19.160;2022-11-14T14:16:35;101008.29;;;11.37;64.81
61436;BME280;47304;47.456;19.160;2022-11-14T14:22:14;101007.55;;;11.28;65.34
61436;BME280;47304;47.456;19.160;2022-11-14T14:32:36;101008.31;;;11.15;65.84
61436;BME280;47304;47.456;19.160;2022-11-14T14:35:24;101008.63;;;11.10;66.01
61436;BME280;47304;47.456;19.160;2022-11-14T14:37:53;101009.81;;;11.04;66.15
61436;BME280;47304;47.456;19.160;2022-11-14T14:40:30;101006.63;;;10.99;66.23
61436;BME280;47304;47.456;19.160;2022-11-14T14:43:00;101006.40;;;10.94;66.26
61436;BME280;47304;47.456;19.160;2022-11-14T14:45:29;101003.39;;;10.89;66.64
61436;BME280;47304;47.456;19.160;2022-11-14T14:48:12;101004.73;;;10.82;66.74
61436;BME280;47304;47.456;19.160;2022-11-14T14:50:41;101005.89;;;10.74;66.93
61436;BME280;47304;47.456;19.160;2022-11-14T14:53:24;100999.17;;;10.69;67.12
61436;BME280;47304;47.456;19.160;2022-11-14T14:55:59;101003.52;;;10.63;67.34
61436;BME280;47304;47.456;19.160;2022-11-14T15:03:39;100993.14;;;10.43;67.82
61436;BME280;47304;47.456;19.160;2022-11-14T15:11:48;100991.00;;;10.24;68.19
61436;BME280;47304;47.456;19.160;2022-11-14T15:14:18;100989.52;;;10.18;68.59
61436;BME280;47304;47.456;19.160;2022-11-14T15:16:48;100991.03;;;10.11;68.69
61436;BME280;47304;47.456;19.160;2022-11-14T15:19:19;100988.68;;;10.05;68.84
61436;BME280;47304;47.456;19.160;2022-11-14T15:22:00;100983.70;;;9.98;68.84
61436;BME280;47304;47.456;19.160;2022-11-14T15:24:29;100982.23;;;9.92;68.85
61436;BME280;47304;47.456;19.160;2022-11-14T15:26:56;100982.17;;;9.88;68.73
61436;BME280;47304;47.456;19.160;2022-11-14T15:29:26;100977.56;;;9.83;68.98